sensor_id;sensor_type;location;lat;lon;timestamp;pressure;altitude;pressure_sealevel;temperature;humidity
14383;BME280;7275;50.328;8.720;2024-02-26T00:00:51;98020.50;;;12.49;46.97
14383;BME280;7275;50.328;8.720;2024-02-26T00:03:19;98025.69;;;12.50;46.81
14383;BME280;7275;50.328;8.720;2024-02-26T00:05:47;98017.75;;;12.50;46.88
14383;BME280;7275;50.328;8.720;2024-02-26T00:08:15;98012.31;;;12.52;46.70
14383;BME280;7275;50.328;8.720;2024-02-26T00:10:42;98004.59;;;12.49;46.82
14383;BME280;7275;50.328;8.720;2024-02-26T00:13:11;98006.41;;;12.48;46.97
14383;BME280;7275;50.328;8.720;2024-02-26T00:15:39;98007.25;;;12.49;47.08
14383;BME280;7275;50.328;8.720;2024-02-26T00:18:07;98002.69;;;12.51;47.08
14383;BME280;7275;50.328;8.720;2024-02-26T00:20:34;97999.06;;;12.52;46.98
14383;BME280;7275;50.328;8.720;2024-02-26T00:23:02;97994.41;;;12.55;47.03
14383;BME280;7275;50.328;8.720;2024-02-26T00:25:30;98004.78;;;12.58;46.78
14383;BME280;7275;50.328;8.720;2024-02-26T00:27:57;98005.63;;;12.59;46.86
14383;BME280;7275;50.328;8.720;2024-02-26T00:30:26;97999.38;;;12.60;46.81
14383;BME280;7275;50.328;8.720;2024-02-26T00:32:54;97993.22;;;12.59;46.68
14383;BME280;7275;50.328;8.720;2024-02-26T00:35:22;97994.91;;;12.60;46.72
14383;BME280;7275;50.328;8.720;2024-02-26T00:37:49;97997.47;;;12.62;46.49
14383;BME280;7275;50.328;8.720;2024-02-26T00:40:17;97989.41;;;12.63;46.62
14383;BME280;7275;50.328;8.720;2024-02-26T00:42:45;97992.53;;;12.68;46.59
14383;BME280;7275;50.328;8.720;2024-02-26T00:45:14;97996.78;;;12.71;46.77
14383;BME280;7275;50.328;8.720;2024-02-26T00:47:44;97985.22;;;12.72;46.56
14383;BME280;7275;50.328;8.720;2024-02-26T00:50:13;97984.16;;;12.74;46.61
14383;BME280;7275;50.328;8.720;2024-02-26T00:52:41;97988.38;;;12.77;46.75
14383;BME280;7275;50.328;8.720;2024-02-26T00:55:09;97981.28;;;12.77;46.65
14383;BME280;7275;50.328;8.720;2024-02-26T00:57:36;97985.63;;;12.78;46.65
14383;BME280;7275;50.328;8.720;2024-02-26T01:00:05;97982.84;;;12.80;46.43
14383;BME280;7275;50.328;8.720;2024-02-26T01:02:35;97987.31;;;12.79;46.71
14383;BME280;7275;50.328;8.720;2024-02-26T01:05:04;97987.31;;;12.79;46.49
14383;BME280;7275;50.328;8.720;2024-02-26T01:07:32;97984.66;;;12.79;46.57
14383;BME280;7275;50.328;8.720;2024-02-26T01:10:02;97981.06;;;12.80;46.56
14383;BME280;7275;50.328;8.720;2024-02-26T01:12:32;97994.41;;;12.79;46.60
14383;BME280;7275;50.328;8.720;2024-02-26T01:15:00;98005.13;;;12.77;46.77
14383;BME280;7275;50.328;8.720;2024-02-26T01:17:28;97985.72;;;12.77;46.30
14383;BME280;7275;50.328;8.720;2024-02-26T01:19:56;97994.78;;;12.74;46.46
14383;BME280;7275;50.328;8.720;2024-02-26T01:22:25;97995.72;;;12.73;46.46
14383;BME280;7275;50.328;8.720;2024-02-26T01:24:52;97973.78;;;12.71;46.52
14383;BME280;7275;50.328;8.720;2024-02-26T01:27:20;97995.94;;;12.70;46.51
14383;BME280;7275;50.328;8.720;2024-02-26T01:29:47;97997.34;;;12.63;46.45
14383;BME280;7275;50.328;8.720;2024-02-26T01:32:15;97985.91;;;12.63;46.58
14383;BME280;7275;50.328;8.720;2024-02-26T01:34:43;97961.63;;;12.56;46.63
14383;BME280;7275;50.328;8.720;2024-02-26T01:37:10;97976.34;;;12.60;46.69
14383;BME280;7275;50.328;8.720;2024-02-26T01:39:39;97989.59;;;12.60;46.65
14383;BME280;7275;50.328;8.720;2024-02-26T01:42:08;97980.72;;;12.61;46.55
14383;BME280;7275;50.328;8.720;2024-02-26T01:44:35;97979.75;;;12.62;46.78
14383;BME280;7275;50.328;8.720;2024-02-26T01:47:05;97983.97;;;12.65;46.74
14383;BME280;7275;50.328;8.720;2024-02-26T01:49:34;97982.91;;;12.67;46.58
14383;BME280;7275;50.328;8.720;2024-02-26T01:52:04;97978.34;;;12.69;46.57
14383;BME280;7275;50.328;8.720;2024-02-26T01:54:35;97964.03;;;12.72;46.50
14383;BME280;7275;50.328;8.720;2024-02-26T01:57:05;97948.94;;;12.72;46.39
14383;BME280;7275;50.328;8.720;2024-02-26T01:59:34;97949.91;;;12.71;46.37
14383;BME280;7275;50.328;8.720;2024-02-26T02:02:05;97943.88;;;12.69;46.36
14383;BME280;7275;50.328;8.720;2024-02-26T02:04:34;97937.72;;;12.69;46.25
14383;BME280;7275;50.328;8.720;2024-02-26T02:07:02;97943.34;;;12.64;46.49
14383;BME280;7275;50.328;8.720;2024-02-26T02:09:30;97947.31;;;12.59;46.58
14383;BME280;7275;50.328;8.720;2024-02-26T02:11:58;97931.41;;;12.59;46.75
14383;BME280;7275;50.328;8.720;2024-02-26T02:14:27;97947.19;;;12.60;46.80
14383;BME280;7275;50.328;8.720;2024-02-26T02:16:55;97954.94;;;12.63;46.89
14383;BME280;7275;50.328;8.720;2024-02-26T02:19:23;97962.66;;;12.66;46.71
14383;BME280;7275;50.328;8.720;2024-02-26T02:21:52;97970.38;;;12.69;46.58
14383;BME280;7275;50.328;8.720;2024-02-26T02:24:19;97956.06;;;12.72;46.56
14383;BME280;7275;50.328;8.720;2024-02-26T02:26:47;97948.72;;;12.75;46.59
14383;BME280;7275;50.328;8.720;2024-02-26T02:29:15;97944.28;;;12.76;46.25
14383;BME280;7275;50.328;8.720;2024-02-26T02:31:42;97930.03;;;12.77;46.19
14383;BME280;7275;50.328;8.720;2024-02-26T02:34:10;97936.31;;;12.76;46.37
14383;BME280;7275;50.328;8.720;2024-02-26T02:36:48;97943.53;;;12.74;46.41
14383;BME280;7275;50.328;8.720;2024-02-26T02:39:17;97956.81;;;12.74;46.50
14383;BME280;7275;50.328;8.720;2024-02-26T02:41:45;97949.91;;;12.71;46.37
14383;BME280;7275;50.328;8.720;2024-02-26T02:44:12;97940.16;;;12.72;46.38
14383;BME280;7275;50.328;8.720;2024-02-26T02:46:40;97929.56;;;12.72;46.61
14383;BME280;7275;50.328;8.720;2024-02-26T02:49:08;97926.78;;;12.73;46.29
14383;BME280;7275;50.328;8.720;2024-02-26T02:51:36;97936.78;;;12.70;46.29
14383;BME280;7275;50.328;8.720;2024-02-26T02:54:04;97949.19;;;12.69;46.34
14383;BME280;7275;50.328;8.720;2024-02-26T02:56:33;97930.03;;;12.66;46.32
14383;BME280;7275;50.328;8.720;2024-02-26T02:59:02;97954.47;;;12.69;46.26
14383;BME280;7275;50.328;8.720;2024-02-26T03:01:30;97960.72;;;12.68;46.26
14383;BME280;7275;50.328;8.720;2024-02-26T03:03:57;97957.25;;;12.68;46.40
14383;BME280;7275;50.328;8.720;2024-02-26T03:06:25;97955.34;;;12.70;46.49
14383;BME280;7275;50.328;8.720;2024-02-26T03:08:54;97950.84;;;12.70;46.26
14383;BME280;7275;50.328;8.720;2024-02-26T03:11:22;97955.09;;;12.73;46.20
14383;BME280;7275;50.328;8.720;2024-02-26T03:13:51;97977.88;;;12.75;46.18
14383;BME280;7275;50.328;8.720;2024-02-26T03:16:19;97954.16;;;12.74;46.03
14383;BME280;7275;50.328;8.720;2024-02-26T03:18:46;97967.50;;;12.72;46.29
14383;BME280;7275;50.328;8.720;2024-02-26T03:21:14;97963.91;;;12.73;46.09
14383;BME280;7275;50.328;8.720;2024-02-26T03:23:42;97967.28;;;12.75;46.26
14383;BME280;7275;50.328;8.720;2024-02-26T03:26:09;97972.47;;;12.77;46.00
14383;BME280;7275;50.328;8.720;2024-02-26T03:28:40;97958.38;;;12.76;46.07
14383;BME280;7275;50.328;8.720;2024-02-26T03:31:09;97967.91;;;12.79;46.23
14383;BME280;7275;50.328;8.720;2024-02-26T03:33:37;97961.53;;;12.81;46.20
14383;BME280;7275;50.328;8.720;2024-02-26T03:36:05;97957.94;;;12.82;46.13
14383;BME280;7275;50.328;8.720;2024-02-26T03:38:34;97960.47;;;12.84;46.13
14383;BME280;7275;50.328;8.720;2024-02-26T03:41:01;97961.19;;;12.86;46.18
14383;BME280;7275;50.328;8.720;2024-02-26T03:43:29;97964.69;;;12.87;46.10
14383;BME280;7275;50.328;8.720;2024-02-26T03:45:56;97956.84;;;12.85;46.42
14383;BME280;7275;50.328;8.720;2024-02-26T03:48:25;97952.63;;;12.82;46.32
14383;BME280;7275;50.328;8.720;2024-02-26T03:50:53;97969.47;;;12.81;46.40
14383;BME280;7275;50.328;8.720;2024-02-26T03:53:21;97965.03;;;12.82;46.17
14383;BME280;7275;50.328;8.720;2024-02-26T03:55:48;97973.19;;;12.79;46.27
14383;BME280;7275;50.328;8.720;2024-02-26T03:58:18;97973.19;;;12.79;46.23
14383;BME280;7275;50.328;8.720;2024-02-26T04:00:45;97978.50;;;12.79;46.37
14383;BME280;7275;50.328;8.720;2024-02-26T04:03:14;97982.00;;;12.79;46.45
14383;BME280;7275;50.328;8.720;2024-02-26T04:05:43;97969.59;;;12.80;46.53
14383;BME280;7275;50.328;8.720;2024-02-26T04:08:11;97966.94;;;12.80;46.47
14383;BME280;7275;50.328;8.720;2024-02-26T04:10:39;97973.09;;;12.80;46.52
14383;BME280;7275;50.328;8.720;2024-02-26T04:13:07;97974.19;;;12.78;46.76
14383;BME280;7275;50.328;8.720;2024-02-26T04:15:35;97968.03;;;12.77;46.63
14383;BME280;7275;50.328;8.720;2024-02-26T04:18:03;97979.47;;;12.78;46.46
14383;BME280;7275;50.328;8.720;2024-02-26T04:20:30;97974.19;;;12.78;46.52
14383;BME280;7275;50.328;8.720;2024-02-26T04:23:00;97968.88;;;12.78;46.71
14383;BME280;7275;50.328;8.720;2024-02-26T04:25:28;97979.47;;;12.78;46.71
14383;BME280;7275;50.328;8.720;2024-02-26T04:27:55;97982.97;;;12.78;46.69
14383;BME280;7275;50.328;8.720;2024-02-26T04:30:23;97990.19;;;12.76;46.91
14383;BME280;7275;50.328;8.720;2024-02-26T04:32:51;97991.03;;;12.77;46.75
14383;BME280;7275;50.328;8.720;2024-02-26T04:35:18;97997.31;;;12.76;46.65
14383;BME280;7275;50.328;8.720;2024-02-26T04:37:46;97993.06;;;12.73;46.79
14383;BME280;7275;50.328;8.720;2024-02-26T04:40:15;97989.81;;;12.70;46.83
14383;BME280;7275;50.328;8.720;2024-02-26T04:42:43;98001.47;;;12.67;47.02
14383;BME280;7275;50.328;8.720;2024-02-26T04:45:12;97985.69;;;12.66;46.83
14383;BME280;7275;50.328;8.720;2024-02-26T04:47:39;97994.56;;;12.65;46.97
14383;BME280;7275;50.328;8.720;2024-02-26T04:50:07;97991.19;;;12.63;47.09
14383;BME280;7275;50.328;8.720;2024-02-26T04:52:36;97986.75;;;12.63;47.00
14383;BME280;7275;50.328;8.720;2024-02-26T04:55:04;97989.41;;;12.63;47.02
14383;BME280;7275;50.328;8.720;2024-02-26T04:57:33;97998.28;;;12.62;47.24
14383;BME280;7275;50.328;8.720;2024-02-26T05:00:01;97989.59;;;12.60;47.08
14383;BME280;7275;50.328;8.720;2024-02-26T05:02:29;97999.38;;;12.60;47.04
14383;BME280;7275;50.328;8.720;2024-02-26T05:04:58;98002.13;;;12.58;47.29
14383;BME280;7275;50.328;8.720;2024-02-26T05:07:26;97998.63;;;12.58;47.21
14383;BME280;7275;50.328;8.720;2024-02-26T05:09:53;98003.09;;;12.57;47.13
14383;BME280;7275;50.328;8.720;2024-02-26T05:12:22;98000.44;;;12.57;47.22
14383;BME280;7275;50.328;8.720;2024-02-26T05:14:51;98005.75;;;12.57;47.25
14383;BME280;7275;50.328;8.720;2024-02-26T05:17:18;97999.59;;;12.57;47.50
14383;BME280;7275;50.328;8.720;2024-02-26T05:19:49;97996.94;;;12.57;47.40
14383;BME280;7275;50.328;8.720;2024-02-26T05:22:16;98000.44;;;12.57;47.28
14383;BME280;7275;50.328;8.720;2024-02-26T05:24:44;98007.44;;;12.58;47.44
14383;BME280;7275;50.328;8.720;2024-02-26T05:27:11;98007.34;;;12.60;47.40
14383;BME280;7275;50.328;8.720;2024-02-26T05:29:39;98011.66;;;12.61;47.49
14383;BME280;7275;50.328;8.720;2024-02-26T05:32:08;98018.75;;;12.60;47.49
14383;BME280;7275;50.328;8.720;2024-02-26T05:34:35;98012.63;;;12.60;47.49
14383;BME280;7275;50.328;8.720;2024-02-26T05:37:03;98015.16;;;12.61;47.52
14383;BME280;7275;50.328;8.720;2024-02-26T05:39:31;98026.72;;;12.60;47.55
14383;BME280;7275;50.328;8.720;2024-02-26T05:41:58;98028.53;;;12.60;47.48
14383;BME280;7275;50.328;8.720;2024-02-26T05:44:26;98030.34;;;12.59;47.56
14383;BME280;7275;50.328;8.720;2024-02-26T05:46:54;98036.59;;;12.58;47.37
14383;BME280;7275;50.328;8.720;2024-02-26T05:49:23;98040.09;;;12.59;47.59
14383;BME280;7275;50.328;8.720;2024-02-26T05:51:51;98041.78;;;12.60;47.70
14383;BME280;7275;50.328;8.720;2024-02-26T05:54:18;98046.97;;;12.61;47.66
14383;BME280;7275;50.328;8.720;2024-02-26T05:56:46;98042.41;;;12.63;47.54
14383;BME280;7275;50.328;8.720;2024-02-26T05:59:13;98038.78;;;12.64;47.62
14383;BME280;7275;50.328;8.720;2024-02-26T06:01:42;98028.19;;;12.64;47.52
14383;BME280;7275;50.328;8.720;2024-02-26T06:04:09;98036.06;;;12.66;47.87
14383;BME280;7275;50.328;8.720;2024-02-26T06:06:40;98037.84;;;12.65;47.69
14383;BME280;7275;50.328;8.720;2024-02-26T06:09:09;98033.28;;;12.67;47.71
14383;BME280;7275;50.328;8.720;2024-02-26T06:11:37;98033.16;;;12.69;47.74
14383;BME280;7275;50.328;8.720;2024-02-26T06:14:05;98043.75;;;12.69;47.73
14383;BME280;7275;50.328;8.720;2024-02-26T06:16:32;98058.72;;;12.70;47.64
14383;BME280;7275;50.328;8.720;2024-02-26T06:19:01;98058.59;;;12.71;47.70
14383;BME280;7275;50.328;8.720;2024-02-26T06:21:29;98049.91;;;12.69;47.96
14383;BME280;7275;50.328;8.720;2024-02-26T06:23:58;98065.38;;;12.75;48.01
14383;BME280;7275;50.328;8.720;2024-02-26T06:26:26;98062.72;;;12.75;47.99
14383;BME280;7275;50.328;8.720;2024-02-26T06:28:55;98063.59;;;12.76;47.88
14383;BME280;7275;50.328;8.720;2024-02-26T06:31:23;98067.91;;;12.77;48.02
14383;BME280;7275;50.328;8.720;2024-02-26T06:33:50;98083.81;;;12.77;48.16
14383;BME280;7275;50.328;8.720;2024-02-26T06:36:18;98080.22;;;12.78;48.23
14383;BME280;7275;50.328;8.720;2024-02-26T06:38:46;98085.41;;;12.79;48.22
14383;BME280;7275;50.328;8.720;2024-02-26T06:41:15;98081.91;;;12.79;48.26
14383;BME280;7275;50.328;8.720;2024-02-26T06:43:42;98088.91;;;12.80;48.35
14383;BME280;7275;50.328;8.720;2024-02-26T06:46:10;98092.50;;;12.79;48.33
14383;BME280;7275;50.328;8.720;2024-02-26T06:48:37;98089.78;;;12.80;48.50
14383;BME280;7275;50.328;8.720;2024-02-26T06:51:05;98095.06;;;12.80;48.51
14383;BME280;7275;50.328;8.720;2024-02-26T06:53:33;98091.44;;;12.81;48.43
14383;BME280;7275;50.328;8.720;2024-02-26T06:56:00;98101.13;;;12.82;48.53
14383;BME280;7275;50.328;8.720;2024-02-26T06:58:29;98110.00;;;12.81;48.61
14383;BME280;7275;50.328;8.720;2024-02-26T07:00:56;98110.13;;;12.80;48.72
14383;BME280;7275;50.328;8.720;2024-02-26T07:03:24;98115.44;;;12.80;48.84
14383;BME280;7275;50.328;8.720;2024-02-26T07:05:52;98110.00;;;12.81;48.87
14383;BME280;7275;50.328;8.720;2024-02-26T07:08:20;98117.97;;;12.81;48.86
14383;BME280;7275;50.328;8.720;2024-02-26T07:10:47;98124.97;;;12.82;48.90
14383;BME280;7275;50.328;8.720;2024-02-26T07:13:15;98127.84;;;12.79;48.93
14383;BME280;7275;50.328;8.720;2024-02-26T07:15:44;98119.25;;;12.76;49.21
14383;BME280;7275;50.328;8.720;2024-02-26T07:18:11;98127.22;;;12.76;49.15
14383;BME280;7275;50.328;8.720;2024-02-26T07:20:39;98127.09;;;12.77;49.25
14383;BME280;7275;50.328;8.720;2024-02-26T07:23:07;98129.88;;;12.76;49.44
14383;BME280;7275;50.328;8.720;2024-02-26T07:25:34;98128.88;;;12.77;49.74
14383;BME280;7275;50.328;8.720;2024-02-26T07:28:02;98125.19;;;12.79;49.47
14383;BME280;7275;50.328;8.720;2024-02-26T07:30:29;98133.00;;;12.81;49.60
14383;BME280;7275;50.328;8.720;2024-02-26T07:32:58;98134.59;;;12.83;49.53
14383;BME280;7275;50.328;8.720;2024-02-26T07:35:25;98138.84;;;12.86;49.71
14383;BME280;7275;50.328;8.720;2024-02-26T07:37:53;98132.38;;;12.90;49.81
14383;BME280;7275;50.328;8.720;2024-02-26T07:40:21;98141.06;;;12.92;49.71
14383;BME280;7275;50.328;8.720;2024-02-26T07:42:48;98133.84;;;12.94;49.69
14383;BME280;7275;50.328;8.720;2024-02-26T07:45:16;98143.41;;;12.97;50.05
14383;BME280;7275;50.328;8.720;2024-02-26T07:47:46;98144.97;;;12.99;49.65
14383;BME280;7275;50.328;8.720;2024-02-26T07:50:15;98142.09;;;13.02;49.84
14383;BME280;7275;50.328;8.720;2024-02-26T07:52:43;98147.22;;;13.05;49.83
14383;BME280;7275;50.328;8.720;2024-02-26T07:55:11;98150.50;;;13.09;49.70
14383;BME280;7275;50.328;8.720;2024-02-26T07:57:42;98154.13;;;13.08;49.67
14383;BME280;7275;50.328;8.720;2024-02-26T08:00:10;98147.22;;;13.05;49.97
14383;BME280;7275;50.328;8.720;2024-02-26T08:02:38;98153.47;;;13.04;49.96
14383;BME280;7275;50.328;8.720;2024-02-26T08:05:06;98152.41;;;13.07;50.01
14383;BME280;7275;50.328;8.720;2024-02-26T08:07:35;98162.16;;;13.06;50.04
14383;BME280;7275;50.328;8.720;2024-02-26T08:10:04;98163.88;;;13.07;50.11
14383;BME280;7275;50.328;8.720;2024-02-26T08:12:32;98177.03;;;13.09;50.09
14383;BME280;7275;50.328;8.720;2024-02-26T08:14:59;98170.66;;;13.11;50.25
14383;BME280;7275;50.328;8.720;2024-02-26T08:17:27;98174.78;;;13.15;50.07
14383;BME280;7275;50.328;8.720;2024-02-26T08:19:55;98170.22;;;13.17;49.97
14383;BME280;7275;50.328;8.720;2024-02-26T08:22:23;98177.22;;;13.18;49.93
14383;BME280;7275;50.328;8.720;2024-02-26T08:24:52;98177.09;;;13.20;50.07
14383;BME280;7275;50.328;8.720;2024-02-26T08:27:20;98176.13;;;13.21;49.96
14383;BME280;7275;50.328;8.720;2024-02-26T08:29:51;98180.50;;;13.22;50.03
14383;BME280;7275;50.328;8.720;2024-02-26T08:32:18;98184.75;;;13.24;50.01
14383;BME280;7275;50.328;8.720;2024-02-26T08:34:46;98182.69;;;13.28;50.04
14383;BME280;7275;50.328;8.720;2024-02-26T08:37:14;98196.50;;;13.33;50.16
14383;BME280;7275;50.328;8.720;2024-02-26T08:39:41;98191.81;;;13.36;50.06
14383;BME280;7275;50.328;8.720;2024-02-26T08:42:10;98190.50;;;13.42;50.17
14383;BME280;7275;50.328;8.720;2024-02-26T08:44:38;98191.03;;;13.47;50.05
14383;BME280;7275;50.328;8.720;2024-02-26T08:47:05;98187.06;;;13.52;50.16
14383;BME280;7275;50.328;8.720;2024-02-26T08:49:33;98184.28;;;13.54;49.94
14383;BME280;7275;50.328;8.720;2024-02-26T08:52:00;98188.53;;;13.56;49.98
14383;BME280;7275;50.328;8.720;2024-02-26T08:54:28;98186.53;;;13.60;50.00
14383;BME280;7275;50.328;8.720;2024-02-26T08:56:55;98194.25;;;13.63;50.22
14383;BME280;7275;50.328;8.720;2024-02-26T08:59:24;98202.72;;;13.68;50.06
14383;BME280;7275;50.328;8.720;2024-02-26T09:01:52;98208.78;;;13.70;49.93
14383;BME280;7275;50.328;8.720;2024-02-26T09:04:19;98204.06;;;13.74;49.90
14383;BME280;7275;50.328;8.720;2024-02-26T09:06:47;98209.91;;;13.79;49.93
14383;BME280;7275;50.328;8.720;2024-02-26T09:09:15;98199.03;;;13.82;50.03
14383;BME280;7275;50.328;8.720;2024-02-26T09:11:42;98193.50;;;13.85;50.01
14383;BME280;7275;50.328;8.720;2024-02-26T09:14:10;98196.56;;;13.91;50.05
14383;BME280;7275;50.328;8.720;2024-02-26T09:16:39;98182.91;;;13.96;50.00
14383;BME280;7275;50.328;8.720;2024-02-26T09:19:07;98186.22;;;13.99;50.00
14383;BME280;7275;50.328;8.720;2024-02-26T09:21:35;98187.88;;;14.00;50.03
14383;BME280;7275;50.328;8.720;2024-02-26T09:24:03;98197.56;;;14.01;50.00
14383;BME280;7275;50.328;8.720;2024-02-26T09:26:30;98188.63;;;14.02;50.07
14383;BME280;7275;50.328;8.720;2024-02-26T09:28:58;98198.16;;;14.05;50.03
14383;BME280;7275;50.328;8.720;2024-02-26T09:31:26;98198.03;;;14.06;50.00
14383;BME280;7275;50.328;8.720;2024-02-26T09:33:54;98199.63;;;14.09;50.08
14383;BME280;7275;50.328;8.720;2024-02-26T09:36:27;98199.50;;;14.10;50.09
14383;BME280;7275;50.328;8.720;2024-02-26T09:38:55;98202.56;;;14.17;50.05
14383;BME280;7275;50.328;8.720;2024-02-26T09:41:28;98201.25;;;14.22;50.08
14383;BME280;7275;50.328;8.720;2024-02-26T09:43:57;98207.19;;;14.26;49.87
14383;BME280;7275;50.328;8.720;2024-02-26T09:46:26;98204.31;;;14.29;50.07
14383;BME280;7275;50.328;8.720;2024-02-26T09:48:54;98213.88;;;14.31;49.90
14383;BME280;7275;50.328;8.720;2024-02-26T09:51:23;98207.34;;;14.35;49.86
14383;BME280;7275;50.328;8.720;2024-02-26T09:53:52;98218.63;;;14.39;49.79
14383;BME280;7275;50.328;8.720;2024-02-26T09:56:21;98218.50;;;14.40;49.88
14383;BME280;7275;50.328;8.720;2024-02-26T09:58:50;98214.63;;;14.45;50.08
14383;BME280;7275;50.328;8.720;2024-02-26T10:01:20;98216.94;;;14.49;49.97
14383;BME280;7275;50.328;8.720;2024-02-26T10:03:56;98215.63;;;14.55;50.11
14383;BME280;7275;50.328;8.720;2024-02-26T10:06:26;98221.44;;;14.60;50.00
14383;BME280;7275;50.328;8.720;2024-02-26T10:08:54;98219.38;;;14.63;49.97
14383;BME280;7275;50.328;8.720;2024-02-26T10:11:23;98227.72;;;14.70;49.65
14383;BME280;7275;50.328;8.720;2024-02-26T10:13:51;98219.63;;;14.71;49.75
14383;BME280;7275;50.328;8.720;2024-02-26T10:16:19;98221.09;;;14.75;49.84
14383;BME280;7275;50.328;8.720;2024-02-26T10:18:47;98224.25;;;14.80;49.82
14383;BME280;7275;50.328;8.720;2024-02-26T10:21:20;98227.50;;;14.84;49.83
14383;BME280;7275;50.328;8.720;2024-02-26T10:23:49;98227.03;;;14.90;50.09
14383;BME280;7275;50.328;8.720;2024-02-26T10:26:17;98220.25;;;14.97;49.89
14383;BME280;7275;50.328;8.720;2024-02-26T10:28:45;98227.75;;;15.03;49.83
14383;BME280;7275;50.328;8.720;2024-02-26T10:31:18;98230.06;;;15.07;50.05
14383;BME280;7275;50.328;8.720;2024-02-26T10:33:46;98231.50;;;15.11;49.90
14383;BME280;7275;50.328;8.720;2024-02-26T10:36:14;98241.31;;;15.11;49.78
14383;BME280;7275;50.328;8.720;2024-02-26T10:38:43;98242.16;;;15.11;49.82
14383;BME280;7275;50.328;8.720;2024-02-26T10:41:13;98237.56;;;15.13;49.79
14383;BME280;7275;50.328;8.720;2024-02-26T10:43:42;98242.16;;;15.23;50.05
14383;BME280;7275;50.328;8.720;2024-02-26T10:46:10;98248.53;;;15.31;50.03
14383;BME280;7275;50.328;8.720;2024-02-26T10:48:38;98246.38;;;15.36;49.87
14383;BME280;7275;50.328;8.720;2024-02-26T10:51:06;98247.22;;;15.37;49.93
14383;BME280;7275;50.328;8.720;2024-02-26T10:53:37;98258.59;;;15.39;49.93
14383;BME280;7275;50.328;8.720;2024-02-26T10:56:07;98251.47;;;15.39;49.77
14383;BME280;7275;50.328;8.720;2024-02-26T10:58:36;98242.63;;;15.39;49.85
14383;BME280;7275;50.328;8.720;2024-02-26T11:01:04;98240.81;;;15.39;49.70
14383;BME280;7275;50.328;8.720;2024-02-26T11:03:33;98248.81;;;15.39;49.80
14383;BME280;7275;50.328;8.720;2024-02-26T11:06:04;98249.53;;;15.41;49.83
14383;BME280;7275;50.328;8.720;2024-02-26T11:08:32;98252.81;;;15.45;49.74
14383;BME280;7275;50.328;8.720;2024-02-26T11:11:00;98255.25;;;15.48;49.88
14383;BME280;7275;50.328;8.720;2024-02-26T11:13:30;98253.91;;;15.53;49.93
14383;BME280;7275;50.328;8.720;2024-02-26T11:16:03;98250.03;;;15.57;49.79
14383;BME280;7275;50.328;8.720;2024-02-26T11:18:31;98252.31;;;15.62;49.87
14383;BME280;7275;50.328;8.720;2024-02-26T11:21:01;98256.56;;;15.64;49.84
14383;BME280;7275;50.328;8.720;2024-02-26T11:23:30;98258.72;;;15.70;49.66
14383;BME280;7275;50.328;8.720;2024-02-26T11:26:01;98262.81;;;15.74;49.82
14383;BME280;7275;50.328;8.720;2024-02-26T11:28:33;98259.31;;;15.74;49.53
14383;BME280;7275;50.328;8.720;2024-02-26T11:31:02;98258.44;;;15.73;49.58
14383;BME280;7275;50.328;8.720;2024-02-26T11:33:31;98257.59;;;15.73;49.71
14383;BME280;7275;50.328;8.720;2024-02-26T11:35:59;98260.25;;;15.73;49.71
14383;BME280;7275;50.328;8.720;2024-02-26T11:38:28;98261.84;;;15.75;49.62
14383;BME280;7275;50.328;8.720;2024-02-26T11:40:56;98262.81;;;15.74;49.45
14383;BME280;7275;50.328;8.720;2024-02-26T11:43:51;98270.19;;;15.71;49.85
14383;BME280;7275;50.328;8.720;2024-02-26T11:46:25;98271.19;;;15.70;49.97
14383;BME280;7275;50.328;8.720;2024-02-26T11:48:55;98269.84;;;15.75;50.00
14383;BME280;7275;50.328;8.720;2024-02-26T11:51:25;98268.59;;;15.79;49.97
14383;BME280;7275;50.328;8.720;2024-02-26T11:53:54;98265.44;;;15.85;49.98
14383;BME280;7275;50.328;8.720;2024-02-26T11:56:24;98270.16;;;15.93;49.93
14383;BME280;7275;50.328;8.720;2024-02-26T11:59:00;98267.94;;;15.98;49.95
14383;BME280;7275;50.328;8.720;2024-02-26T12:01:43;98272.81;;;16.04;49.76
14383;BME280;7275;50.328;8.720;2024-02-26T12:04:13;98271.44;;;16.10;49.69
14383;BME280;7275;50.328;8.720;2024-02-26T12:06:43;98271.91;;;16.15;49.66
14383;BME280;7275;50.328;8.720;2024-02-26T12:09:12;98276.75;;;16.21;49.61
14383;BME280;7275;50.328;8.720;2024-02-26T12:11:42;98272.00;;;16.24;49.51
14383;BME280;7275;50.328;8.720;2024-02-26T12:14:11;98272.44;;;16.29;49.58
14383;BME280;7275;50.328;8.720;2024-02-26T12:16:39;98280.78;;;16.36;49.67
14383;BME280;7275;50.328;8.720;2024-02-26T12:19:09;98274.69;;;16.45;49.54
14383;BME280;7275;50.328;8.720;2024-02-26T12:21:37;98265.97;;;16.54;49.62
14383;BME280;7275;50.328;8.720;2024-02-26T12:24:10;98278.97;;;16.68;49.47
14383;BME280;7275;50.328;8.720;2024-02-26T12:26:38;98280.34;;;16.83;49.54
14383;BME280;7275;50.328;8.720;2024-02-26T12:29:07;98278.91;;;17.00;49.54
14383;BME280;7275;50.328;8.720;2024-02-26T12:31:36;98273.94;;;17.25;49.38
14383;BME280;7275;50.328;8.720;2024-02-26T12:34:05;98275.31;;;17.71;49.33
14383;BME280;7275;50.328;8.720;2024-02-26T12:36:33;98275.94;;;18.22;49.19
14383;BME280;7275;50.328;8.720;2024-02-26T12:39:02;98273.56;;;18.76;48.43
14383;BME280;7275;50.328;8.720;2024-02-26T12:41:32;98276.72;;;19.18;47.50
14383;BME280;7275;50.328;8.720;2024-02-26T12:44:01;98269.88;;;19.52;46.71
14383;BME280;7275;50.328;8.720;2024-02-26T12:46:29;98267.72;;;19.83;46.39
14383;BME280;7275;50.328;8.720;2024-02-26T12:48:58;98278.97;;;20.14;46.07
14383;BME280;7275;50.328;8.720;2024-02-26T12:51:26;98285.59;;;20.37;45.55
14383;BME280;7275;50.328;8.720;2024-02-26T12:53:55;98291.63;;;20.48;44.78
14383;BME280;7275;50.328;8.720;2024-02-26T12:56:25;98281.69;;;20.49;44.71
14383;BME280;7275;50.328;8.720;2024-02-26T12:58:53;98289.53;;;20.60;44.65
14383;BME280;7275;50.328;8.720;2024-02-26T13:01:23;98293.59;;;20.64;44.35
14383;BME280;7275;50.328;8.720;2024-02-26T13:03:52;98306.47;;;20.60;43.97
14383;BME280;7275;50.328;8.720;2024-02-26T13:06:22;98301.72;;;20.54;43.83
14383;BME280;7275;50.328;8.720;2024-02-26T13:08:56;98295.19;;;20.57;43.97
14383;BME280;7275;50.328;8.720;2024-02-26T13:11:24;98301.88;;;20.70;43.97
14383;BME280;7275;50.328;8.720;2024-02-26T13:13:52;98310.38;;;20.84;43.86
14383;BME280;7275;50.328;8.720;2024-02-26T13:16:24;98306.63;;;20.94;43.60